createdAt,value
2023-04-11T00:01:26.452Z,94881.44
2023-04-11T00:03:53.287Z,94875.28
2023-04-11T00:06:20.454Z,94861.91
2023-04-11T00:08:47.929Z,94850.97
2023-04-11T00:11:14.982Z,94844.34
2023-04-11T00:13:42.680Z,94847.75
2023-04-11T00:16:10.111Z,94839.03
2023-04-11T00:18:39.442Z,94837.75
2023-04-11T00:21:08.191Z,94836.88
2023-04-11T00:23:34.884Z,94849.16
2023-04-11T00:26:01.885Z,94834.34
2023-04-11T00:28:28.803Z,94840.94
2023-04-11T00:30:55.605Z,94836.88
2023-04-11T00:33:22.703Z,94816.38
2023-04-11T00:35:49.321Z,94811.22
2023-04-11T00:38:16.670Z,94805.41
2023-04-11T00:40:43.885Z,94794.13
2023-04-11T00:43:10.614Z,94778.97
2023-04-11T00:45:39.049Z,94777.25
2023-04-11T00:48:06.567Z,94762.28
2023-04-11T00:50:33.280Z,94764.72
2023-04-11T00:53:00.186Z,94771.97
2023-04-11T00:55:27.418Z,94763.97
2023-04-11T00:57:55.054Z,94760.91
2023-04-11T01:00:22.520Z,94767.38
2023-04-11T01:02:49.938Z,94775.63
2023-04-11T01:05:17.269Z,94775.78
2023-04-11T01:07:47.070Z,94774.97
2023-04-11T01:10:15.086Z,94779.97
2023-04-11T01:12:42.523Z,94785.25
2023-04-11T01:15:10.958Z,94785.75
2023-04-11T01:17:37.929Z,94783.34
2023-04-11T01:20:07.957Z,94782.41
2023-04-11T01:22:37.228Z,94763.66
2023-04-11T01:25:04.956Z,94765.28
2023-04-11T01:27:34.158Z,94759.34
2023-04-11T01:30:01.668Z,94765.31
2023-04-11T01:32:28.493Z,94745.63
2023-04-11T01:34:57.579Z,94742.38
2023-04-11T01:37:25.125Z,94747.19
2023-04-11T01:39:51.915Z,94737.66
2023-04-11T01:42:21.165Z,94728.63
2023-04-11T01:44:50.007Z,94721.19
2023-04-11T01:47:16.719Z,94713.63
2023-04-11T01:49:43.701Z,94724.44
2023-04-11T01:52:10.582Z,94728.78
2023-04-11T01:54:37.455Z,94719.94
2023-04-11T01:57:06.137Z,94708.19
2023-04-11T01:59:32.951Z,94703.50
2023-04-11T02:02:00.535Z,94692.81
2023-04-11T02:04:27.310Z,94690.59
2023-04-11T02:06:54.147Z,94682.69
2023-04-11T02:09:21.198Z,94688.66
2023-04-11T02:11:47.798Z,94678.16
2023-04-11T02:14:16.384Z,94674.63
2023-04-11T02:16:55.060Z,94675.75
2023-04-11T02:19:23.576Z,94678.81
2023-04-11T02:21:52.223Z,94673.16
2023-04-11T02:24:19.089Z,94668.78
2023-04-11T02:26:46.110Z,94675.56
2023-04-11T02:29:12.956Z,94664.44
2023-04-11T02:31:39.626Z,94659.59
2023-04-11T02:34:06.443Z,94656.84
2023-04-11T02:36:34.747Z,94671.38
2023-04-11T02:39:01.347Z,94659.09
2023-04-11T02:41:28.200Z,94650.88
2023-04-11T02:43:54.748Z,94647.63
2023-04-11T02:46:22.458Z,94645.06
2023-04-11T02:48:49.145Z,94660.22
2023-04-11T02:51:15.783Z,94652.16
2023-04-11T02:53:42.681Z,94642.81
2023-04-11T02:56:19.199Z,94642.34
2023-04-11T02:58:48.902Z,94633.44
2023-04-11T03:01:21.676Z,94630.84
2023-04-11T03:03:48.636Z,94643.28
2023-04-11T03:06:16.185Z,94641.03
2023-04-11T03:08:43.962Z,94629.09
2023-04-11T03:11:10.644Z,94631.66
2023-04-11T03:13:39.268Z,94629.91
2023-04-11T03:16:06.925Z,94633.09
2023-04-11T03:18:33.645Z,94638.72
2023-04-11T03:21:04.856Z,94629.66
2023-04-11T03:23:32.141Z,94620.94
2023-04-11T03:26:00.265Z,94620.63
2023-04-11T03:28:27.688Z,94611.41
2023-04-11T03:30:55.155Z,94613.66
2023-04-11T03:33:23.595Z,94604.63
2023-04-11T03:35:50.261Z,94609.16
2023-04-11T03:38:16.965Z,94607.16
2023-04-11T03:40:43.649Z,94611.22
2023-04-11T03:43:15.771Z,94603.28
2023-04-11T03:45:42.700Z,94606.41
2023-04-11T03:48:20.037Z,94611.13
2023-04-11T03:50:55.960Z,94596.25
2023-04-11T03:53:28.421Z,94597.72
2023-04-11T03:56:01.502Z,94600.78
2023-04-11T03:58:34.175Z,94588.88
2023-04-11T04:01:02.565Z,94593.03
2023-04-11T04:03:29.974Z,94582.72
2023-04-11T04:05:58.121Z,94579.28
2023-04-11T04:08:24.751Z,94578.81
2023-04-11T04:10:51.964Z,94576.53
2023-04-11T04:13:19.305Z,94580.09
2023-04-11T04:16:03.555Z,94587.84
2023-04-11T04:18:32.358Z,94583.81
2023-04-11T04:21:00.482Z,94585.00
2023-04-11T04:23:27.273Z,94597.75
2023-04-11T04:26:17.242Z,94599.84
2023-04-11T04:28:53.948Z,94597.75
2023-04-11T04:31:29.830Z,94604.69
2023-04-11T04:34:08.583Z,94603.72
2023-04-11T04:36:48.164Z,94616.31
2023-04-11T04:39:21.230Z,94621.19
2023-04-11T04:41:58.534Z,94628.47
2023-04-11T04:44:31.046Z,94647.47
2023-04-11T04:47:02.304Z,94663.69
2023-04-11T04:49:29.259Z,94654.84
2023-04-11T04:51:56.062Z,94667.31
2023-04-11T04:54:23.816Z,94668.91
2023-04-11T04:56:50.362Z,94663.66
2023-04-11T04:59:18.742Z,94665.28
2023-04-11T05:01:51.573Z,94656.28
2023-04-11T05:04:24.115Z,94669.56
2023-04-11T05:06:54.691Z,94657.28
2023-04-11T05:09:21.854Z,94663.63
2023-04-11T05:11:50.978Z,94661.84
2023-04-11T05:14:19.184Z,94656.03
2023-04-11T05:16:46.356Z,94700.28
2023-04-11T05:19:13.390Z,94671.88
2023-04-11T05:21:44.222Z,94684.31
2023-04-11T05:24:12.110Z,94676.72
2023-04-11T05:26:39.593Z,94664.75
2023-04-11T05:29:06.953Z,94664.44
2023-04-11T05:31:33.880Z,94659.84
2023-04-11T05:34:02.242Z,94656.25
2023-04-11T05:36:29.389Z,94656.84
2023-04-11T05:38:56.410Z,94652.00
2023-04-11T05:41:23.146Z,94671.09
2023-04-11T05:43:49.719Z,94666.59
2023-04-11T05:46:17.424Z,94680.00
2023-04-11T05:48:44.145Z,94670.50
2023-04-11T05:51:11.191Z,94648.81
2023-04-11T05:53:37.843Z,94660.09
2023-04-11T05:56:05.032Z,94663.81
2023-04-11T05:58:31.774Z,94650.78
2023-04-11T06:00:59.992Z,94651.75
2023-04-11T06:03:27.340Z,94663.75
2023-04-11T06:05:54.305Z,94670.22
2023-04-11T06:08:21.599Z,94660.03
2023-04-11T06:10:48.280Z,94676.06
2023-04-11T06:13:15.280Z,94687.28
2023-04-11T06:15:42.092Z,94681.78
2023-04-11T06:18:09.030Z,94688.00
2023-04-11T06:20:35.727Z,94684.34
2023-04-11T06:23:02.371Z,94697.28
2023-04-11T06:25:29.273Z,94697.13
2023-04-11T06:27:56.032Z,94691.94
2023-04-11T06:30:22.991Z,94712.84
2023-04-11T06:32:49.882Z,94707.28
2023-04-11T06:35:16.586Z,94708.66
2023-04-11T06:37:43.279Z,94718.66
2023-04-11T06:40:10.719Z,94706.78
2023-04-11T06:42:37.433Z,94700.25
2023-04-11T06:45:06.270Z,94696.66
2023-04-11T06:47:33.083Z,94689.69
2023-04-11T06:49:59.961Z,94704.41
2023-04-11T06:52:28.287Z,94708.38
2023-04-11T06:54:54.968Z,94713.69
2023-04-11T06:57:21.928Z,94729.09
2023-04-11T06:59:48.701Z,94711.41
2023-04-11T07:02:15.558Z,94735.22
2023-04-11T07:04:42.650Z,94741.03
2023-04-11T07:07:09.521Z,94741.81
2023-04-11T07:09:36.299Z,94736.38
2023-04-11T07:12:02.944Z,94737.56
2023-04-11T07:14:29.705Z,94735.06
2023-04-11T07:16:56.386Z,94741.13
2023-04-11T07:19:22.958Z,94739.09
2023-04-11T07:21:49.815Z,94748.59
2023-04-11T07:24:18.619Z,94745.56
2023-04-11T07:26:46.729Z,94762.44
2023-04-11T07:29:14.936Z,94765.78
2023-04-11T07:31:42.029Z,94770.41
2023-04-11T07:34:08.880Z,94769.19
2023-04-11T07:36:36.144Z,94765.84
2023-04-11T07:39:04.363Z,94774.59
2023-04-11T07:41:31.349Z,94786.72
2023-04-11T07:43:58.269Z,94790.19
2023-04-11T07:46:25.296Z,94791.63
2023-04-11T07:48:52.035Z,94798.88
2023-04-11T07:51:18.995Z,94808.03
2023-04-11T07:53:45.965Z,94800.72
2023-04-11T07:56:13.618Z,94797.78
2023-04-11T07:58:40.492Z,94804.06
2023-04-11T08:01:19.026Z,94820.34
2023-04-11T08:03:45.759Z,94821.13
2023-04-11T08:06:12.390Z,94817.75
2023-04-11T08:08:39.114Z,94816.94
2023-04-11T08:11:06.151Z,94833.47
2023-04-11T08:13:32.699Z,94832.13
2023-04-11T08:15:59.459Z,94835.94
2023-04-11T08:18:26.060Z,94841.38
2023-04-11T08:20:52.976Z,94837.69
2023-04-11T08:23:21.707Z,94837.53
2023-04-11T08:25:51.274Z,94844.28
2023-04-11T08:28:18.275Z,94854.06
2023-04-11T08:30:45.133Z,94860.66
2023-04-11T08:33:12.288Z,94859.13
2023-04-11T08:35:42.965Z,94859.53
2023-04-11T08:38:09.729Z,94855.00
2023-04-11T08:40:36.312Z,94858.19
2023-04-11T08:43:10.176Z,94867.56
2023-04-11T08:45:36.752Z,94862.41
2023-04-11T08:48:03.428Z,94856.09
2023-04-11T08:50:30.170Z,94864.63
2023-04-11T08:53:02.648Z,94871.66
2023-04-11T08:55:30.003Z,94876.72
2023-04-11T08:57:59.227Z,94874.31
2023-04-11T09:00:29.273Z,94867.69
2023-04-11T09:03:04.331Z,94869.34
2023-04-11T09:05:36.138Z,94871.91
2023-04-11T09:08:06.270Z,94871.34
2023-04-11T09:10:33.271Z,94873.41
2023-04-11T09:13:00.620Z,94862.69
2023-04-11T09:15:30.226Z,94876.88
2023-04-11T09:18:00.337Z,94878.91
2023-04-11T09:20:30.391Z,94893.44
2023-04-11T09:23:01.234Z,94895.53
2023-04-11T09:25:28.016Z,94894.91
2023-04-11T09:28:09.090Z,94891.25
2023-04-11T09:30:36.407Z,94890.59
2023-04-11T09:33:24.042Z,94887.28
2023-04-11T09:35:55.288Z,94894.44
2023-04-11T09:38:48.259Z,94895.91
2023-04-11T09:41:15.168Z,94897.97
2023-04-11T09:43:53.312Z,94903.97
2023-04-11T09:46:21.240Z,94911.13
2023-04-11T09:48:49.007Z,94915.97
2023-04-11T09:51:28.161Z,94913.94
2023-04-11T09:54:03.315Z,94923.44
2023-04-11T09:56:31.026Z,94933.19
2023-04-11T09:59:00.557Z,94928.41
2023-04-11T10:01:27.299Z,94930.31
2023-04-11T10:03:55.778Z,94934.22
2023-04-11T10:06:35.009Z,94934.84
2023-04-11T10:09:11.173Z,94933.25
2023-04-11T10:11:43.063Z,94926.19
2023-04-11T10:14:29.760Z,94933.41
2023-04-11T10:17:24.380Z,94927.44
2023-04-11T10:19:57.471Z,94921.94
2023-04-11T10:22:46.618Z,94921.38
2023-04-11T10:25:16.873Z,94942.19
2023-04-11T10:28:00.946Z,94940.59
2023-04-11T10:30:39.851Z,94950.03
2023-04-11T10:33:15.773Z,94957.38
2023-04-11T10:36:05.509Z,94961.81
2023-04-11T10:38:41.808Z,94965.97
2023-04-11T10:41:27.776Z,94957.44
2023-04-11T10:44:24.647Z,94960.28
2023-04-11T10:46:54.446Z,94960.44
2023-04-11T10:49:47.438Z,94959.75
2023-04-11T10:52:22.659Z,94959.19
2023-04-11T10:54:51.500Z,94957.56
2023-04-11T10:57:19.130Z,94959.34
2023-04-11T10:59:51.577Z,94952.56
2023-04-11T11:02:22.022Z,94953.81
2023-04-11T11:04:49.435Z,94953.34
2023-04-11T11:07:17.616Z,94950.25
2023-04-11T11:09:51.051Z,94956.19
2023-04-11T11:12:18.480Z,94946.19
2023-04-11T11:14:46.710Z,94953.50
2023-04-11T11:17:15.150Z,94955.09
2023-04-11T11:19:46.626Z,94959.75
2023-04-11T11:22:26.541Z,94960.31
2023-04-11T11:24:53.653Z,94957.34
2023-04-11T11:27:24.920Z,94968.25
2023-04-11T11:29:52.892Z,94957.19
2023-04-11T11:32:28.381Z,94968.97
2023-04-11T11:34:55.573Z,94949.91
2023-04-11T11:37:23.122Z,94961.22
2023-04-11T11:39:51.096Z,94973.63
2023-04-11T11:42:18.407Z,94976.59
2023-04-11T11:44:45.118Z,94979.34
2023-04-11T11:47:15.063Z,94966.16
2023-04-11T11:49:49.602Z,94982.28
2023-04-11T11:52:36.421Z,94978.16
2023-04-11T11:55:08.101Z,94987.53
2023-04-11T11:57:37.444Z,94979.22
2023-04-11T12:00:10.227Z,94974.72
2023-04-11T12:02:39.394Z,94967.69
2023-04-11T12:05:07.503Z,94972.41
2023-04-11T12:07:37.246Z,94970.94
2023-04-11T12:10:09.409Z,94964.34
2023-04-11T12:12:37.427Z,94967.97
2023-04-11T12:15:11.963Z,94961.34
2023-04-11T12:17:39.471Z,94959.78
2023-04-11T12:20:15.830Z,94952.09
2023-04-11T12:22:42.693Z,94959.47
2023-04-11T12:25:12.061Z,94972.47
2023-04-11T12:27:40.479Z,94973.31
2023-04-11T12:30:08.318Z,94962.47
2023-04-11T12:32:35.681Z,94964.06
2023-04-11T12:35:04.384Z,94974.41
2023-04-11T12:37:31.824Z,94969.41
2023-04-11T12:39:58.508Z,94961.44
2023-04-11T12:42:27.239Z,94963.78
2023-04-11T12:44:54.839Z,94971.53
2023-04-11T12:47:21.443Z,94964.41
2023-04-11T12:49:48.378Z,94961.47
2023-04-11T12:52:15.226Z,94967.13
2023-04-11T12:54:41.850Z,94965.91
2023-04-11T12:57:09.036Z,94972.94
2023-04-11T12:59:35.605Z,94971.03
2023-04-11T13:02:02.475Z,94965.53
2023-04-11T13:04:29.313Z,94971.78
2023-04-11T13:07:00.945Z,94965.97
2023-04-11T13:09:31.656Z,94958.91
2023-04-11T13:11:59.191Z,94962.28
2023-04-11T13:14:26.124Z,94958.06
2023-04-11T13:16:52.834Z,94956.09
2023-04-11T13:19:21.299Z,94950.28
2023-04-11T13:21:48.311Z,94949.91
2023-04-11T13:24:15.211Z,94951.03
2023-04-11T13:26:42.051Z,94941.44
2023-04-11T13:29:08.855Z,94937.19
2023-04-11T13:31:35.813Z,94937.56
2023-04-11T13:34:02.606Z,94934.13
2023-04-11T13:36:29.574Z,94931.84
2023-04-11T13:38:57.584Z,94942.13
2023-04-11T13:41:25.365Z,94942.81
2023-04-11T13:43:52.665Z,94939.72
2023-04-11T13:46:20.038Z,94931.34
2023-04-11T13:48:46.816Z,94927.94
2023-04-11T13:51:13.924Z,94919.28
2023-04-11T13:53:40.762Z,94935.81
2023-04-11T13:56:08.163Z,94926.34
2023-04-11T13:58:35.298Z,94928.38
2023-04-11T14:01:02.035Z,94917.25
2023-04-11T14:03:33.218Z,94914.66
2023-04-11T14:06:01.111Z,94919.25
2023-04-11T14:08:28.713Z,94915.41
2023-04-11T14:10:55.984Z,94922.25
2023-04-11T14:13:22.809Z,94930.59
2023-04-11T14:16:01.011Z,94916.38
2023-04-11T14:18:34.573Z,94928.84
2023-04-11T14:21:01.786Z,94926.47
2023-04-11T14:23:29.352Z,94929.34
2023-04-11T14:25:56.846Z,94922.00
2023-04-11T14:28:26.508Z,94922.88
2023-04-11T14:30:53.780Z,94921.47
2023-04-11T14:33:20.851Z,94920.09
2023-04-11T14:35:47.687Z,94922.19
2023-04-11T14:38:15.786Z,94918.47
2023-04-11T14:40:44.588Z,94920.16
2023-04-11T14:43:11.666Z,94915.75
2023-04-11T14:45:38.351Z,94909.56
2023-04-11T14:48:05.592Z,94916.31
2023-04-11T14:50:32.730Z,94912.41
2023-04-11T14:52:59.721Z,94925.09
2023-04-11T14:55:26.537Z,94921.31
2023-04-11T14:57:55.321Z,94932.53
2023-04-11T15:00:24.611Z,94918.47
2023-04-11T15:02:54.277Z,94938.69
2023-04-11T15:05:22.533Z,94932.97
2023-04-11T15:07:51.889Z,94946.13
2023-04-11T15:10:21.046Z,94928.59
2023-04-11T15:12:47.810Z,94932.53
2023-04-11T15:15:14.740Z,94937.78
2023-04-11T15:17:50.202Z,94934.03
2023-04-11T15:20:16.934Z,94935.47
2023-04-11T15:22:46.684Z,94929.81
2023-04-11T15:25:16.699Z,94929.66
2023-04-11T15:27:43.894Z,94913.63
2023-04-11T15:30:11.501Z,94927.91
2023-04-11T15:32:42.805Z,94928.06
2023-04-11T15:35:09.938Z,94936.19
2023-04-11T15:37:36.478Z,94922.22
2023-04-11T15:40:06.327Z,94910.91
2023-04-11T15:42:35.551Z,94915.59
2023-04-11T15:45:02.740Z,94923.13
2023-04-11T15:47:30.564Z,94932.47
2023-04-11T15:49:58.962Z,94926.25
2023-04-11T15:52:25.658Z,94929.31
2023-04-11T15:54:52.331Z,94935.47
2023-04-11T15:57:19.753Z,94914.19
2023-04-11T15:59:46.496Z,94913.34
2023-04-11T16:02:15.185Z,94910.59
2023-04-11T16:04:44.696Z,94915.81
2023-04-11T16:07:13.920Z,94914.91
2023-04-11T16:09:40.753Z,94923.72
2023-04-11T16:12:07.797Z,94910.59
2023-04-11T16:14:34.787Z,94905.59
2023-04-11T16:17:01.499Z,94908.69
2023-04-11T16:19:28.174Z,94908.56
2023-04-11T16:21:54.710Z,94902.75
2023-04-11T16:24:21.540Z,94898.47
2023-04-11T16:26:48.466Z,94904.59
2023-04-11T16:29:15.252Z,94893.78
2023-04-11T16:31:42.148Z,94895.31
2023-04-11T16:34:08.762Z,94899.63
2023-04-11T16:36:35.693Z,94894.72
2023-04-11T16:39:04.560Z,94905.50
2023-04-11T16:41:36.344Z,94904.38
2023-04-11T16:44:11.459Z,94898.06
2023-04-11T16:46:41.778Z,94900.81
2023-04-11T16:49:09.586Z,94901.53
2023-04-11T16:51:37.051Z,94903.03
2023-04-11T16:54:09.389Z,94904.59
2023-04-11T16:56:37.373Z,94912.25
2023-04-11T16:59:05.167Z,94902.06
2023-04-11T17:01:31.996Z,94893.81
2023-04-11T17:03:59.237Z,94898.56
2023-04-11T17:06:27.122Z,94894.59
2023-04-11T17:08:54.319Z,94885.84
2023-04-11T17:11:21.056Z,94895.09
2023-04-11T17:13:49.583Z,94893.50
2023-04-11T17:16:19.625Z,94893.47
2023-04-11T17:18:46.338Z,94890.91
2023-04-11T17:21:12.979Z,94903.03
2023-04-11T17:23:43.287Z,94894.94
2023-04-11T17:26:13.214Z,94895.56
2023-04-11T17:28:40.883Z,94889.34
2023-04-11T17:31:14.985Z,94893.72
2023-04-11T17:33:42.516Z,94893.97
2023-04-11T17:36:11.150Z,94891.16
2023-04-11T17:38:39.753Z,94902.81
2023-04-11T17:41:14.569Z,94893.09
2023-04-11T17:43:42.816Z,94886.22
2023-04-11T17:46:09.787Z,94891.50
2023-04-11T17:48:36.653Z,94891.78
2023-04-11T17:51:04.400Z,94885.28
2023-04-11T17:53:31.628Z,94884.47
2023-04-11T17:55:58.402Z,94887.47
2023-04-11T17:58:25.425Z,94881.81
2023-04-11T18:00:56.129Z,94891.25
2023-04-11T18:03:25.796Z,94889.38
2023-04-11T18:05:54.069Z,94890.97
2023-04-11T18:08:28.722Z,94891.09
2023-04-11T18:11:00.110Z,94890.56
2023-04-11T18:13:27.501Z,94893.97
2023-04-11T18:15:54.365Z,94897.47
2023-04-11T18:18:21.265Z,94900.28
2023-04-11T18:20:48.347Z,94896.19
2023-04-11T18:23:15.497Z,94901.06
2023-04-11T18:25:42.231Z,94903.34
2023-04-11T18:28:09.027Z,94902.63
2023-04-11T18:30:35.732Z,94898.31
2023-04-11T18:33:02.510Z,94905.47
2023-04-11T18:35:29.183Z,94893.22
2023-04-11T18:37:55.951Z,94897.09
2023-04-11T18:40:22.863Z,94910.69
2023-04-11T18:42:52.999Z,94910.28
2023-04-11T18:45:21.809Z,94914.88
2023-04-11T18:47:49.499Z,94917.97
2023-04-11T18:50:17.238Z,94920.31
2023-04-11T18:52:45.612Z,94918.25
2023-04-11T18:55:12.733Z,94915.38
2023-04-11T18:57:39.849Z,94908.78
2023-04-11T19:00:19.324Z,94911.31
2023-04-11T19:02:47.703Z,94913.00
2023-04-11T19:05:14.905Z,94905.91
2023-04-11T19:07:43.158Z,94908.34
2023-04-11T19:10:11.585Z,94904.84
2023-04-11T19:12:39.074Z,94896.03
2023-04-11T19:15:08.246Z,94900.91
2023-04-11T19:17:38.974Z,94897.34
2023-04-11T19:20:13.222Z,94889.34
2023-04-11T19:22:43.520Z,94896.84
2023-04-11T19:25:11.593Z,94898.97
2023-04-11T19:27:41.422Z,94904.06
2023-04-11T19:30:10.267Z,94911.94
2023-04-11T19:32:40.369Z,94911.38
2023-04-11T19:35:10.154Z,94910.69
2023-04-11T19:37:37.625Z,94906.75
2023-04-11T19:40:08.345Z,94899.19
2023-04-11T19:42:37.175Z,94901.53
2023-04-11T19:45:04.614Z,94898.66
2023-04-11T19:47:31.822Z,94891.72
2023-04-11T19:50:00.970Z,94893.72
2023-04-11T19:52:28.684Z,94889.28
2023-04-11T19:54:56.630Z,94887.09
2023-04-11T19:57:24.717Z,94878.97
2023-04-11T19:59:51.531Z,94875.75
2023-04-11T20:02:18.473Z,94879.22
2023-04-11T20:04:48.156Z,94871.59
2023-04-11T20:07:15.805Z,94871.72
2023-04-11T20:09:42.341Z,94866.53
2023-04-11T20:12:09.431Z,94866.59
2023-04-11T20:14:37.961Z,94865.16
2023-04-11T20:17:05.840Z,94868.53
2023-04-11T20:19:33.331Z,94862.72
2023-04-11T20:22:01.185Z,94858.78
2023-04-11T20:24:27.926Z,94856.34
2023-04-11T20:26:57.276Z,94848.47
2023-04-11T20:31:57.340Z,94854.75
2023-04-11T20:34:23.998Z,94857.44
2023-04-11T20:36:50.817Z,94850.59
2023-04-11T20:39:17.336Z,94849.72
2023-04-11T20:41:44.145Z,94852.63
2023-04-11T20:44:10.808Z,94856.13
2023-04-11T20:46:40.000Z,94861.81
2023-04-11T20:49:07.024Z,94863.94
2023-04-11T20:51:34.752Z,94858.28
2023-04-11T20:54:01.818Z,94853.97
2023-04-11T20:56:35.018Z,94849.47
2023-04-11T20:59:02.527Z,94849.34
2023-04-11T21:01:33.031Z,94848.91
2023-04-11T21:04:04.029Z,94854.34
2023-04-11T21:06:31.730Z,94853.00
2023-04-11T21:09:00.051Z,94842.06
2023-04-11T21:11:27.139Z,94843.94
2023-04-11T21:13:54.677Z,94835.00
2023-04-11T21:16:21.914Z,94842.28
2023-04-11T21:18:49.287Z,94837.66
2023-04-11T21:21:15.851Z,94825.81
2023-04-11T21:23:43.549Z,94825.56
2023-04-11T21:26:11.633Z,94826.28
2023-04-11T21:28:38.800Z,94818.84
2023-04-11T21:31:05.737Z,94824.88
2023-04-11T21:33:32.542Z,94812.69
2023-04-11T21:35:59.551Z,94810.13
2023-04-11T21:38:29.245Z,94804.63
2023-04-11T21:40:57.020Z,94793.63
2023-04-11T21:43:24.406Z,94792.94
2023-04-11T21:45:51.093Z,94797.47
2023-04-11T21:48:17.680Z,94794.91
2023-04-11T21:50:45.951Z,94796.66
2023-04-11T21:53:13.982Z,94786.44
2023-04-11T21:55:45.528Z,94790.75
2023-04-11T21:58:25.819Z,94791.91
2023-04-11T22:00:55.799Z,94788.78
2023-04-11T22:03:23.110Z,94786.13
2023-04-11T22:05:52.358Z,94779.84
2023-04-11T22:08:20.378Z,94778.34
2023-04-11T22:10:48.524Z,94774.50
2023-04-11T22:13:19.376Z,94766.50
2023-04-11T22:15:48.867Z,94761.28
2023-04-11T22:18:15.580Z,94761.59
2023-04-11T22:20:46.313Z,94752.06
2023-04-11T22:23:13.957Z,94751.97
2023-04-11T22:25:42.692Z,94756.50
2023-04-11T22:28:20.343Z,94746.88
2023-04-11T22:30:47.118Z,94743.84
2023-04-11T22:33:13.975Z,94742.00
2023-04-11T22:35:42.418Z,94743.84
2023-04-11T22:38:09.983Z,94737.00
2023-04-11T22:40:39.015Z,94728.66
2023-04-11T22:43:06.177Z,94726.91
2023-04-11T22:45:37.072Z,94727.03
2023-04-11T22:48:05.995Z,94722.63
2023-04-11T22:50:37.291Z,94716.44
2023-04-11T22:53:04.715Z,94724.94
2023-04-11T22:55:35.672Z,94724.34
2023-04-11T22:58:03.440Z,94707.63
2023-04-11T23:00:30.551Z,94704.16
2023-04-11T23:02:59.651Z,94707.75
2023-04-11T23:05:26.612Z,94699.63
2023-04-11T23:07:53.293Z,94703.59
2023-04-11T23:10:19.993Z,94689.91
2023-04-11T23:12:47.569Z,94674.19
2023-04-11T23:15:14.851Z,94679.56
2023-04-11T23:17:41.760Z,94680.00
2023-04-11T23:20:11.015Z,94678.75
2023-04-11T23:22:37.567Z,94673.41
2023-04-11T23:25:05.399Z,94668.91
2023-04-11T23:27:32.639Z,94666.44
2023-04-11T23:29:59.857Z,94659.59
2023-04-11T23:32:27.161Z,94660.03
2023-04-11T23:34:54.246Z,94651.03
2023-04-11T23:37:20.943Z,94641.72
2023-04-11T23:39:47.623Z,94641.72
2023-04-11T23:42:14.398Z,94637.56
2023-04-11T23:44:41.295Z,94639.44
2023-04-11T23:47:07.932Z,94630.81
2023-04-11T23:49:34.714Z,94634.06
2023-04-11T23:52:01.421Z,94627.66
2023-04-11T23:54:30.444Z,94630.69
2023-04-11T23:56:58.392Z,94622.00
2023-04-11T23:59:25.254Z,94625.84
